createdAt,value
2023-03-22T00:01:28.242Z,0.51
2023-03-22T00:03:55.171Z,0.49
2023-03-22T00:06:22.368Z,0.49
2023-03-22T00:08:53.909Z,0.49
2023-03-22T00:11:24.376Z,0.49
2023-03-22T00:13:52.762Z,0.48
2023-03-22T00:16:21.314Z,0.47
2023-03-22T00:18:48.290Z,0.45
2023-03-22T00:21:17.263Z,0.44
2023-03-22T00:23:45.255Z,0.42
2023-03-22T00:26:14.332Z,0.41
2023-03-22T00:28:42.482Z,0.43
2023-03-22T00:31:11.010Z,0.43
2023-03-22T00:33:40.852Z,0.40
2023-03-22T00:36:09.098Z,0.37
2023-03-22T00:38:44.042Z,0.32
2023-03-22T00:41:19.852Z,0.31
2023-03-22T00:43:48.186Z,0.29
2023-03-22T00:46:17.470Z,0.26
2023-03-22T00:48:44.464Z,0.22
2023-03-22T00:51:12.102Z,0.21
2023-03-22T00:53:41.992Z,0.23
2023-03-22T00:56:14.171Z,0.25
2023-03-22T00:59:01.557Z,0.26
2023-03-22T01:01:29.220Z,0.24
2023-03-22T01:03:56.124Z,0.18
2023-03-22T01:06:23.218Z,0.11
2023-03-22T01:08:51.127Z,0.07
2023-03-22T01:11:18.441Z,0.07
2023-03-22T01:13:45.765Z,0.08
2023-03-22T01:16:12.727Z,0.10
2023-03-22T01:18:40.899Z,0.12
2023-03-22T01:21:09.094Z,0.12
2023-03-22T01:23:36.458Z,0.12
2023-03-22T01:26:04.406Z,0.09
2023-03-22T01:28:31.534Z,0.03
2023-03-22T01:31:02.685Z,-0.04
2023-03-22T01:33:31.232Z,-0.11
2023-03-22T01:35:58.254Z,-0.17
2023-03-22T01:38:25.442Z,-0.20
2023-03-22T01:40:58.136Z,-0.22
2023-03-22T01:43:25.634Z,-0.23
2023-03-22T01:45:54.225Z,-0.24
2023-03-22T01:48:34.390Z,-0.25
2023-03-22T01:51:07.995Z,-0.27
2023-03-22T01:54:05.942Z,-0.28
2023-03-22T01:56:36.610Z,-0.28
2023-03-22T01:59:07.904Z,-0.28
2023-03-22T02:01:49.716Z,-0.29
2023-03-22T02:04:20.349Z,-0.30
2023-03-22T02:06:48.504Z,-0.30
2023-03-22T02:09:18.390Z,-0.29
2023-03-22T02:11:57.739Z,-0.31
2023-03-22T02:14:53.612Z,-0.33
2023-03-22T02:17:46.590Z,-0.38
2023-03-22T02:20:38.866Z,-0.42
2023-03-22T02:23:30.964Z,-0.47
2023-03-22T02:26:05.547Z,-0.52
2023-03-22T02:28:45.823Z,-0.53
2023-03-22T02:31:17.933Z,-0.53
2023-03-22T02:34:15.753Z,-0.50
2023-03-22T02:36:46.127Z,-0.50
2023-03-22T02:39:22.551Z,-0.51
2023-03-22T02:41:56.251Z,-0.53
2023-03-22T02:44:27.156Z,-0.55
2023-03-22T02:47:04.284Z,-0.56
2023-03-22T02:49:41.376Z,-0.57
2023-03-22T02:52:17.705Z,-0.59
2023-03-22T02:55:00.238Z,-0.60
2023-03-22T02:57:48.593Z,-0.59
2023-03-22T03:00:18.928Z,-0.57
2023-03-22T03:02:49.382Z,-0.56
2023-03-22T03:05:18.340Z,-0.59
2023-03-22T03:07:52.468Z,-0.62
2023-03-22T03:10:21.394Z,-0.65
2023-03-22T03:12:48.431Z,-0.67
2023-03-22T03:15:18.802Z,-0.67
2023-03-22T03:18:01.497Z,-0.68
2023-03-22T03:20:49.641Z,-0.71
2023-03-22T03:23:28.797Z,-0.71
2023-03-22T03:26:09.583Z,-0.72
2023-03-22T03:28:51.154Z,-0.73
2023-03-22T03:31:30.243Z,-0.72
2023-03-22T03:34:00.518Z,-0.70
2023-03-22T03:36:29.658Z,-0.68
2023-03-22T03:38:58.548Z,-0.66
2023-03-22T03:41:29.594Z,-0.65
2023-03-22T03:43:58.695Z,-0.65
2023-03-22T03:46:26.338Z,-0.65
2023-03-22T03:48:57.568Z,-0.65
2023-03-22T03:51:27.793Z,-0.66
2023-03-22T03:55:33.963Z,-0.64
2023-03-22T03:58:00.908Z,-0.66
2023-03-22T04:00:27.804Z,-0.63
2023-03-22T04:03:21.024Z,-0.64
2023-03-22T04:06:19.909Z,-0.63
2023-03-22T04:08:53.681Z,-0.62
2023-03-22T04:11:24.001Z,-0.61
2023-03-22T04:13:52.603Z,-0.59
2023-03-22T04:16:21.178Z,-0.56
2023-03-22T04:18:48.887Z,-0.53
2023-03-22T04:21:16.670Z,-0.52
2023-03-22T04:23:52.288Z,-0.50
2023-03-22T04:26:19.152Z,-0.46
2023-03-22T04:28:54.338Z,-0.43
2023-03-22T04:31:21.321Z,-0.40
2023-03-22T04:33:55.975Z,-0.40
2023-03-22T04:36:39.732Z,-0.40
2023-03-22T04:39:21.677Z,-0.38
2023-03-22T04:41:56.852Z,-0.36
2023-03-22T04:44:23.890Z,-0.35
2023-03-22T04:46:50.888Z,-0.33
2023-03-22T04:49:18.006Z,-0.32
2023-03-22T04:51:44.860Z,-0.29
2023-03-22T04:54:23.654Z,-0.24
2023-03-22T04:56:51.268Z,-0.18
2023-03-22T04:59:20.486Z,-0.15
2023-03-22T05:01:48.908Z,-0.13
2023-03-22T05:04:19.664Z,-0.09
2023-03-22T05:06:47.172Z,-0.04
2023-03-22T05:09:23.336Z,0.01
2023-03-22T05:11:51.308Z,0.07
2023-03-22T05:14:28.361Z,0.11
2023-03-22T05:16:55.714Z,0.17
2023-03-22T05:19:24.699Z,0.25
2023-03-22T05:21:58.302Z,0.29
2023-03-22T05:24:33.815Z,0.32
2023-03-22T05:27:01.270Z,0.36
2023-03-22T05:29:28.856Z,0.45
2023-03-22T05:32:06.565Z,0.50
2023-03-22T05:34:36.077Z,0.50
2023-03-22T05:37:22.454Z,0.50
2023-03-22T05:39:53.117Z,0.51
2023-03-22T05:42:20.891Z,0.56
2023-03-22T05:44:47.848Z,0.60
2023-03-22T05:47:14.820Z,0.68
2023-03-22T05:49:53.720Z,0.82
2023-03-22T05:52:22.398Z,0.94
2023-03-22T05:55:13.864Z,1.10
2023-03-22T05:57:41.480Z,1.22
2023-03-22T06:00:16.434Z,1.31
2023-03-22T06:03:03.541Z,1.44
2023-03-22T06:05:32.531Z,1.61
2023-03-22T06:07:59.962Z,1.71
2023-03-22T06:10:29.454Z,1.79
2023-03-22T06:12:56.509Z,1.92
2023-03-22T06:15:29.145Z,2.03
2023-03-22T06:17:58.949Z,2.14
2023-03-22T06:20:27.504Z,2.23
2023-03-22T06:22:59.774Z,2.35
2023-03-22T06:25:27.168Z,2.51
2023-03-22T06:27:55.142Z,2.65
2023-03-22T06:30:22.605Z,2.84
2023-03-22T06:33:18.770Z,3.09
2023-03-22T06:35:48.328Z,3.39
2023-03-22T06:38:20.404Z,3.63
2023-03-22T06:40:47.525Z,3.87
2023-03-22T06:43:14.405Z,4.10
2023-03-22T06:45:43.660Z,4.21
2023-03-22T06:48:11.658Z,4.43
2023-03-22T06:51:08.297Z,5.02
2023-03-22T06:53:36.719Z,5.77
2023-03-22T06:56:04.598Z,6.55
2023-03-22T06:58:41.798Z,7.37
2023-03-22T07:01:08.753Z,8.14
2023-03-22T07:03:36.384Z,8.79
2023-03-22T07:06:08.950Z,9.74
2023-03-22T07:08:38.641Z,10.74
2023-03-22T07:11:06.837Z,11.29
2023-03-22T07:13:33.969Z,11.94
2023-03-22T07:16:03.811Z,12.57
2023-03-22T07:18:43.574Z,12.88
2023-03-22T07:21:10.656Z,13.41
2023-03-22T07:23:38.758Z,13.94
2023-03-22T07:26:09.555Z,14.09
2023-03-22T07:28:41.627Z,13.95
2023-03-22T07:31:11.769Z,13.86
2023-03-22T07:34:00.380Z,14.34
2023-03-22T07:36:32.809Z,14.85
2023-03-22T07:38:59.873Z,15.26
2023-03-22T07:41:32.946Z,15.54
2023-03-22T07:44:23.192Z,15.83
2023-03-22T07:47:30.592Z,16.13
2023-03-22T07:50:27.930Z,16.13
2023-03-22T07:52:56.353Z,16.10
2023-03-22T07:55:23.474Z,16.16
2023-03-22T07:57:51.484Z,16.45
2023-03-22T08:00:18.838Z,16.64
2023-03-22T08:02:52.386Z,16.56
2023-03-22T08:05:42.220Z,16.49
2023-03-22T08:08:13.740Z,16.55
2023-03-22T08:10:41.132Z,16.85
2023-03-22T08:13:08.177Z,17.01
2023-03-22T08:15:37.625Z,17.51
2023-03-22T08:18:04.905Z,18.20
2023-03-22T08:20:34.780Z,18.35
2023-03-22T08:23:05.847Z,18.62
2023-03-22T08:25:53.134Z,19.03
2023-03-22T08:28:20.456Z,19.47
2023-03-22T08:30:49.226Z,19.71
2023-03-22T08:33:16.549Z,19.82
2023-03-22T08:35:45.503Z,20.23
2023-03-22T08:38:12.651Z,20.70
2023-03-22T08:40:47.981Z,21.17
2023-03-22T08:43:20.752Z,21.69
2023-03-22T08:45:47.818Z,21.79
2023-03-22T08:48:16.490Z,21.77
2023-03-22T08:50:57.741Z,21.94
2023-03-22T08:53:30.945Z,22.25
2023-03-22T08:56:15.010Z,22.24
2023-03-22T08:58:50.089Z,22.72
2023-03-22T09:01:37.461Z,23.48
2023-03-22T09:04:07.093Z,23.77
2023-03-22T09:06:35.815Z,23.65
2023-03-22T09:09:03.627Z,23.85
2023-03-22T09:11:31.364Z,23.76
2023-03-22T09:13:58.220Z,23.92
2023-03-22T09:16:25.123Z,24.24
2023-03-22T09:18:52.056Z,24.73
2023-03-22T09:21:22.192Z,24.80
2023-03-22T09:23:56.862Z,23.69
2023-03-22T09:26:30.054Z,22.45
2023-03-22T09:28:57.063Z,21.56
2023-03-22T09:31:24.052Z,20.67
2023-03-22T09:34:01.017Z,19.81
2023-03-22T09:36:27.980Z,18.99
2023-03-22T09:38:54.887Z,18.16
2023-03-22T09:41:27.824Z,17.48
2023-03-22T09:43:59.852Z,16.90
2023-03-22T09:46:34.529Z,16.27
2023-03-22T09:49:06.281Z,15.87
2023-03-22T09:51:42.630Z,15.57
2023-03-22T09:54:21.668Z,15.26
2023-03-22T09:57:15.883Z,14.90
2023-03-22T10:00:11.865Z,14.54
2023-03-22T10:03:00.836Z,14.27
2023-03-22T10:05:52.940Z,14.12
2023-03-22T10:08:38.504Z,13.89
2023-03-22T10:11:20.637Z,13.67
2023-03-22T10:14:25.481Z,13.61
2023-03-22T10:16:56.642Z,13.62
2023-03-22T10:19:31.785Z,13.49
2023-03-22T10:22:02.396Z,13.33
2023-03-22T10:24:33.726Z,13.20
2023-03-22T10:27:01.603Z,13.09
2023-03-22T10:29:39.823Z,12.99
2023-03-22T10:32:21.107Z,12.97
2023-03-22T10:34:47.980Z,13.05
2023-03-22T10:37:22.602Z,13.10
2023-03-22T10:39:53.966Z,13.20
2023-03-22T10:42:28.153Z,13.23
2023-03-22T10:45:14.790Z,13.23
2023-03-22T10:47:42.642Z,13.15
2023-03-22T10:50:21.422Z,12.89
2023-03-22T10:52:58.041Z,12.67
2023-03-22T10:55:26.112Z,12.65
2023-03-22T10:58:16.060Z,12.75
2023-03-22T11:00:47.544Z,12.80
2023-03-22T11:03:37.913Z,12.76
2023-03-22T11:06:23.524Z,12.83
2023-03-22T11:08:57.502Z,12.93
2023-03-22T11:11:24.421Z,12.95
2023-03-22T11:13:55.817Z,12.99
2023-03-22T11:16:23.644Z,13.02
2023-03-22T11:18:51.044Z,12.96
2023-03-22T11:21:19.912Z,12.94
2023-03-22T11:24:00.864Z,12.96
2023-03-22T11:26:31.808Z,12.95
2023-03-22T11:29:16.707Z,12.90
2023-03-22T11:32:00.568Z,12.85
2023-03-22T11:34:31.000Z,12.75
2023-03-22T11:37:01.626Z,12.70
2023-03-22T11:39:29.860Z,12.63
2023-03-22T11:42:04.159Z,12.56
2023-03-22T11:44:38.376Z,12.47
2023-03-22T11:47:08.504Z,12.39
2023-03-22T11:49:45.653Z,12.37
2023-03-22T11:52:18.472Z,12.38
2023-03-22T11:54:47.101Z,12.44
2023-03-22T11:57:18.713Z,12.47
2023-03-22T12:00:12.041Z,12.55
2023-03-22T12:02:46.701Z,12.60
2023-03-22T12:05:24.537Z,12.61
2023-03-22T12:08:03.835Z,12.64
2023-03-22T12:10:42.829Z,12.72
2023-03-22T12:13:41.956Z,12.82
2023-03-22T12:16:15.112Z,12.94
2023-03-22T12:18:51.511Z,13.03
2023-03-22T12:21:18.439Z,13.22
2023-03-22T12:23:45.964Z,13.44
2023-03-22T12:26:20.735Z,13.63
2023-03-22T12:28:59.735Z,13.82
2023-03-22T12:31:38.297Z,13.93
2023-03-22T12:34:14.662Z,14.04
2023-03-22T12:36:47.170Z,14.19
2023-03-22T12:39:35.065Z,14.33
2023-03-22T12:42:10.997Z,14.46
2023-03-22T12:44:43.282Z,14.67
2023-03-22T12:47:20.830Z,14.78
2023-03-22T12:50:14.245Z,14.80
2023-03-22T12:52:46.115Z,14.58
2023-03-22T12:55:30.973Z,14.31
2023-03-22T12:57:59.263Z,14.18
2023-03-22T13:00:33.420Z,14.04
2023-03-22T13:03:18.953Z,13.94
2023-03-22T13:05:48.645Z,13.91
2023-03-22T13:08:21.862Z,13.91
2023-03-22T13:10:59.166Z,13.92
2023-03-22T13:13:28.002Z,13.89
2023-03-22T13:15:57.953Z,13.83
2023-03-22T13:18:37.966Z,13.78
2023-03-22T13:21:16.709Z,13.67
2023-03-22T13:24:21.157Z,13.64
2023-03-22T13:26:55.608Z,13.69
2023-03-22T13:29:25.866Z,13.68
2023-03-22T13:31:59.225Z,13.65
2023-03-22T13:34:50.734Z,13.66
2023-03-22T13:37:31.855Z,13.61
2023-03-22T13:40:02.311Z,13.60
2023-03-22T13:42:38.295Z,13.54
2023-03-22T13:45:09.537Z,13.53
2023-03-22T13:47:49.776Z,13.53
2023-03-22T13:50:29.763Z,13.49
2023-03-22T13:53:05.096Z,13.49
2023-03-22T13:55:58.871Z,13.46
2023-03-22T13:58:46.814Z,13.43
2023-03-22T14:01:36.599Z,13.39
2023-03-22T14:04:12.563Z,13.38
2023-03-22T14:06:57.578Z,13.35
2023-03-22T14:09:31.467Z,13.32
2023-03-22T14:12:28.671Z,13.30
2023-03-22T14:15:01.047Z,13.30
2023-03-22T14:17:50.715Z,13.30
2023-03-22T14:20:21.170Z,13.32
